createdAt,value
2023-04-19T00:02:29.388Z,12.03
2023-04-19T00:04:58.085Z,12.20
2023-04-19T00:07:27.480Z,11.97
2023-04-19T00:09:55.918Z,11.80
2023-04-19T00:12:25.743Z,12.43
2023-04-19T00:14:54.230Z,12.97
2023-04-19T00:17:23.003Z,12.70
2023-04-19T00:19:52.267Z,13.23
2023-04-19T00:22:20.600Z,12.30
2023-04-19T00:24:48.981Z,12.47
2023-04-19T00:27:17.416Z,12.60
2023-04-19T00:29:47.279Z,12.20
2023-04-19T00:32:16.350Z,12.33
2023-04-19T00:34:44.924Z,11.80
2023-04-19T00:37:13.266Z,11.70
2023-04-19T00:39:41.674Z,12.20
2023-04-19T00:42:10.156Z,12.07
2023-04-19T00:44:38.529Z,12.30
2023-04-19T00:47:08.507Z,11.50
2023-04-19T00:49:37.109Z,11.37
2023-04-19T00:52:06.468Z,11.77
2023-04-19T00:54:35.049Z,12.10
2023-04-19T00:57:03.683Z,12.50
2023-04-19T00:59:32.723Z,13.03
2023-04-19T01:02:01.755Z,12.60
2023-04-19T01:04:33.025Z,12.87
2023-04-19T01:07:02.938Z,12.23
2023-04-19T01:09:31.743Z,12.50
2023-04-19T01:12:03.471Z,12.57
2023-04-19T01:14:31.930Z,12.70
2023-04-19T01:17:00.398Z,11.70
2023-04-19T01:19:28.868Z,13.50
2023-04-19T01:21:59.627Z,13.03
2023-04-19T01:24:29.335Z,12.57
2023-04-19T01:26:57.797Z,13.23
2023-04-19T01:29:26.308Z,12.60
2023-04-19T01:31:54.817Z,13.30
2023-04-19T01:34:24.486Z,12.80
2023-04-19T01:36:52.880Z,12.53
2023-04-19T01:39:21.390Z,12.33
2023-04-19T01:41:51.066Z,12.93
2023-04-19T01:44:19.601Z,11.73
2023-04-19T01:46:48.125Z,11.80
2023-04-19T01:49:17.071Z,12.90
2023-04-19T01:51:46.892Z,11.37
2023-04-19T01:54:15.368Z,11.23
2023-04-19T01:56:44.122Z,11.63
2023-04-19T01:59:13.828Z,11.50
2023-04-19T02:01:42.322Z,10.97
2023-04-19T02:04:11.141Z,11.07
2023-04-19T02:06:39.597Z,11.50
2023-04-19T02:09:09.600Z,12.27
2023-04-19T02:11:38.124Z,12.33
2023-04-19T02:14:06.501Z,12.30
2023-04-19T02:16:36.542Z,12.20
2023-04-19T02:19:05.558Z,12.77
2023-04-19T02:21:35.107Z,11.83
2023-04-19T02:24:03.722Z,11.97
2023-04-19T02:26:33.031Z,11.77
2023-04-19T02:29:01.580Z,12.50
2023-04-19T02:31:29.980Z,11.60
2023-04-19T02:33:59.686Z,12.03
2023-04-19T02:36:28.252Z,12.33
2023-04-19T02:38:56.778Z,11.67
2023-04-19T02:41:25.133Z,12.27
2023-04-19T02:43:53.600Z,13.00
2023-04-19T02:46:22.160Z,12.07
2023-04-19T02:48:50.759Z,12.87
2023-04-19T02:51:20.856Z,12.10
2023-04-19T02:53:49.318Z,11.80
2023-04-19T02:56:17.739Z,11.67
2023-04-19T02:58:46.741Z,11.90
2023-04-19T03:01:15.415Z,11.70
2023-04-19T03:03:43.843Z,12.13
2023-04-19T03:06:12.337Z,12.80
2023-04-19T03:08:42.612Z,11.70
2023-04-19T03:11:12.352Z,12.50
2023-04-19T03:13:40.928Z,12.27
2023-04-19T03:16:10.246Z,13.10
2023-04-19T03:18:39.145Z,13.93
2023-04-19T03:21:09.592Z,13.30
2023-04-19T03:23:49.401Z,12.50
2023-04-19T03:26:18.465Z,13.13
2023-04-19T03:28:49.729Z,14.80
2023-04-19T03:31:24.665Z,15.93
2023-04-19T03:33:55.157Z,14.37
2023-04-19T03:36:29.029Z,14.10
2023-04-19T03:38:58.770Z,13.17
2023-04-19T03:41:28.718Z,14.00
2023-04-19T03:44:10.825Z,14.73
2023-04-19T03:46:42.256Z,14.37
2023-04-19T03:49:11.605Z,14.50
2023-04-19T03:51:41.955Z,15.13
2023-04-19T03:54:11.776Z,14.57
2023-04-19T03:56:40.293Z,14.00
2023-04-19T03:59:10.349Z,14.73
2023-04-19T04:01:42.607Z,14.77
2023-04-19T04:04:12.151Z,14.73
2023-04-19T04:06:41.527Z,14.43
2023-04-19T04:09:11.450Z,14.47
2023-04-19T04:11:39.785Z,14.23
2023-04-19T04:14:08.778Z,14.67
2023-04-19T04:16:39.871Z,14.47
2023-04-19T04:19:08.981Z,15.03
2023-04-19T04:21:41.321Z,15.37
2023-04-19T04:24:11.767Z,15.30
2023-04-19T04:26:50.069Z,15.30
2023-04-19T04:29:26.945Z,15.20
2023-04-19T04:31:58.078Z,14.00
2023-04-19T04:34:33.449Z,15.00
2023-04-19T04:37:08.931Z,14.87
2023-04-19T04:39:41.005Z,14.50
2023-04-19T04:42:12.313Z,15.30
2023-04-19T04:44:41.675Z,15.03
2023-04-19T04:47:13.910Z,15.67
2023-04-19T04:49:48.916Z,14.57
2023-04-19T04:52:18.705Z,14.93
2023-04-19T04:55:14.348Z,15.17
2023-04-19T04:57:45.576Z,15.17
2023-04-19T05:00:20.517Z,15.07
2023-04-19T05:03:07.988Z,14.87
2023-04-19T05:05:43.183Z,14.60
2023-04-19T05:08:13.571Z,13.83
2023-04-19T05:10:44.104Z,14.40
2023-04-19T05:13:13.883Z,14.23
2023-04-19T05:15:42.629Z,14.23
2023-04-19T05:18:11.279Z,13.63
2023-04-19T05:20:40.380Z,13.70
2023-04-19T05:23:18.668Z,13.63
2023-04-19T05:25:48.819Z,13.67
2023-04-19T05:28:17.638Z,13.60
2023-04-19T05:31:00.698Z,12.30
2023-04-19T05:33:34.539Z,12.97
2023-04-19T05:36:03.478Z,13.27
2023-04-19T05:38:31.906Z,12.87
2023-04-19T05:41:06.940Z,12.50
2023-04-19T05:43:35.298Z,12.80
2023-04-19T05:46:04.578Z,12.40
2023-04-19T05:48:33.116Z,12.77
2023-04-19T05:51:33.263Z,13.17
2023-04-19T05:54:34.553Z,12.17
2023-04-19T05:57:04.737Z,13.13
2023-04-19T05:59:33.311Z,13.30
2023-04-19T06:02:02.338Z,12.70
2023-04-19T06:04:31.282Z,12.63
2023-04-19T06:07:00.879Z,13.53
2023-04-19T06:09:29.335Z,13.03
2023-04-19T06:11:58.166Z,13.53
2023-04-19T06:14:29.361Z,13.43
2023-04-19T06:16:58.515Z,13.30
2023-04-19T06:19:27.169Z,13.90
2023-04-19T06:21:55.550Z,13.27
2023-04-19T06:24:24.766Z,12.80
2023-04-19T06:26:53.178Z,13.23
2023-04-19T06:29:24.030Z,12.80
2023-04-19T06:31:53.792Z,12.83
2023-04-19T06:34:22.215Z,12.37
2023-04-19T06:36:50.660Z,13.97
2023-04-19T06:39:19.121Z,13.30
2023-04-19T06:41:47.668Z,12.80
2023-04-19T06:44:18.585Z,12.37
2023-04-19T06:46:47.092Z,13.63
2023-04-19T06:49:16.874Z,13.27
2023-04-19T06:51:45.348Z,12.87
2023-04-19T06:54:13.791Z,14.50
2023-04-19T06:56:45.919Z,13.33
2023-04-19T06:59:16.657Z,13.30
2023-04-19T07:01:45.841Z,12.90
2023-04-19T07:04:16.908Z,13.53
2023-04-19T07:06:49.657Z,13.23
2023-04-19T07:09:18.436Z,13.03
2023-04-19T07:11:48.290Z,13.93
2023-04-19T07:14:17.085Z,13.70
2023-04-19T07:16:45.916Z,13.37
2023-04-19T07:19:15.134Z,14.20
2023-04-19T07:21:44.837Z,15.17
2023-04-19T07:24:13.254Z,15.10
2023-04-19T07:26:41.614Z,14.43
2023-04-19T07:29:10.019Z,14.77
2023-04-19T07:31:38.654Z,15.13
2023-04-19T07:34:07.185Z,14.50
2023-04-19T07:36:37.190Z,15.53
2023-04-19T07:39:06.867Z,16.20
2023-04-19T07:41:36.244Z,14.63
2023-04-19T07:44:04.981Z,14.90
2023-04-19T07:46:33.360Z,14.20
2023-04-19T07:49:01.736Z,14.07
2023-04-19T07:51:30.166Z,13.90
2023-04-19T07:53:58.692Z,14.27
2023-04-19T07:56:28.444Z,13.53
2023-04-19T07:59:07.616Z,12.73
2023-04-19T08:01:38.297Z,13.97
2023-04-19T08:04:08.268Z,13.97
2023-04-19T08:06:39.887Z,13.47
2023-04-19T08:09:08.466Z,13.07
2023-04-19T08:11:41.176Z,12.17
2023-04-19T08:14:30.471Z,12.50
2023-04-19T08:17:22.407Z,13.33
2023-04-19T08:19:46.527Z,12.63
2023-04-19T08:22:15.048Z,12.90
2023-04-19T08:24:43.530Z,12.87
2023-04-19T08:27:13.208Z,11.80
2023-04-19T08:29:41.719Z,12.27
2023-04-19T08:32:10.274Z,11.50
2023-04-19T08:34:39.735Z,11.37
2023-04-19T08:37:08.454Z,11.47
2023-04-19T08:39:37.416Z,11.80
2023-04-19T08:42:13.548Z,10.82
2023-04-19T08:45:23.463Z,13.07
2023-04-19T08:47:59.463Z,13.32
2023-04-19T08:53:12.248Z,11.48
2023-04-19T08:58:30.653Z,11.98
2023-04-19T09:01:06.376Z,11.15
2023-04-19T09:03:47.325Z,13.50
2023-04-19T09:06:23.565Z,12.35
2023-04-19T09:08:57.959Z,12.10
2023-04-19T09:11:38.762Z,10.45
2023-04-19T09:14:10.869Z,11.27
2023-04-19T09:16:41.566Z,11.00
2023-04-19T09:19:22.971Z,12.38
2023-04-19T09:21:54.506Z,12.98
2023-04-19T09:25:14.475Z,12.95
2023-04-19T09:27:30.025Z,11.48
2023-04-19T09:30:00.009Z,12.05
2023-04-19T09:32:30.969Z,12.05
2023-04-19T09:35:01.134Z,12.35
2023-04-19T09:40:03.150Z,10.77
2023-04-19T09:48:05.685Z,10.95
2023-04-19T09:50:46.653Z,11.15
2023-04-19T09:53:19.681Z,11.40
2023-04-19T09:56:00.689Z,11.50
2023-04-19T10:01:14.365Z,11.43
2023-04-19T10:03:48.630Z,11.32
2023-04-19T10:08:52.061Z,9.38
2023-04-19T10:11:23.688Z,10.68
2023-04-19T10:13:58.715Z,10.52
2023-04-19T10:16:28.635Z,9.60
2023-04-19T10:18:59.122Z,9.75
2023-04-19T10:21:29.084Z,11.10
2023-04-19T10:23:58.507Z,10.95
2023-04-19T10:26:27.040Z,11.50
2023-04-19T10:28:58.132Z,9.68
2023-04-19T10:31:27.977Z,9.80
2023-04-19T10:33:58.657Z,10.15
2023-04-19T10:36:29.485Z,9.23
2023-04-19T10:38:58.053Z,9.52
2023-04-19T10:41:57.983Z,10.00
2023-04-19T10:44:26.549Z,9.10
2023-04-19T10:46:54.992Z,10.38
2023-04-19T10:49:26.040Z,11.77
2023-04-19T10:51:54.980Z,11.40
2023-04-19T10:54:31.662Z,14.18
2023-04-19T10:57:05.136Z,17.08
2023-04-19T10:59:34.650Z,16.73
2023-04-19T11:02:05.116Z,15.63
2023-04-19T11:05:05.610Z,15.75
2023-04-19T11:07:39.986Z,15.20
2023-04-19T11:10:09.553Z,15.93
2023-04-19T11:12:38.106Z,15.10
2023-04-19T11:15:09.530Z,15.48
2023-04-19T11:17:39.773Z,15.73
2023-04-19T11:20:11.824Z,16.75
2023-04-19T11:22:42.038Z,15.65
2023-04-19T11:25:12.933Z,14.10
2023-04-19T11:27:43.113Z,12.88
2023-04-19T11:30:13.836Z,11.85
2023-04-19T11:32:48.385Z,12.20
2023-04-19T11:35:21.626Z,11.68
2023-04-19T11:37:50.327Z,11.25
2023-04-19T11:40:20.435Z,12.05
2023-04-19T11:42:54.338Z,11.05
2023-04-19T11:45:32.190Z,11.82
2023-04-19T11:48:02.062Z,11.55
2023-04-19T11:50:37.202Z,11.25
2023-04-19T11:53:16.648Z,11.48
2023-04-19T11:55:47.387Z,11.23
2023-04-19T11:58:30.232Z,10.98
2023-04-19T12:01:01.017Z,10.77
2023-04-19T12:03:29.815Z,10.65
2023-04-19T12:06:03.768Z,11.30
2023-04-19T12:08:33.532Z,10.25
2023-04-19T12:11:03.690Z,10.13
2023-04-19T12:13:33.001Z,11.10
2023-04-19T12:16:02.656Z,10.35
2023-04-19T12:18:45.302Z,10.35
2023-04-19T12:21:27.586Z,10.88
2023-04-19T12:23:57.716Z,10.45
2023-04-19T12:26:27.088Z,9.68
2023-04-19T12:28:55.793Z,10.45
2023-04-19T12:31:24.148Z,9.80
2023-04-19T12:33:52.859Z,9.75
2023-04-19T12:36:22.708Z,10.93
2023-04-19T12:38:51.911Z,10.27
2023-04-19T12:41:21.329Z,10.40
2023-04-19T12:43:49.938Z,10.10
2023-04-19T12:46:18.438Z,9.50
2023-04-19T12:48:47.093Z,8.93
2023-04-19T12:51:15.632Z,8.98
2023-04-19T12:53:49.526Z,9.40
2023-04-19T12:56:18.463Z,10.10
2023-04-19T12:58:46.922Z,9.27
2023-04-19T13:01:15.679Z,8.93
2023-04-19T13:03:44.240Z,9.60
2023-04-19T13:06:14.838Z,9.27
2023-04-19T13:08:46.635Z,9.55
2023-04-19T13:11:23.202Z,10.50
2023-04-19T13:13:54.123Z,10.10
2023-04-19T13:16:23.248Z,9.65
2023-04-19T13:18:52.788Z,9.63
2023-04-19T13:21:21.337Z,9.10
2023-04-19T13:23:50.008Z,10.10
2023-04-19T13:26:19.805Z,8.70
2023-04-19T13:28:48.268Z,10.23
2023-04-19T13:31:17.015Z,10.57
2023-04-19T13:33:46.693Z,11.27
2023-04-19T13:36:15.282Z,10.80
2023-04-19T13:38:43.774Z,11.00
2023-04-19T13:41:12.204Z,10.75
2023-04-19T13:43:42.480Z,10.40
2023-04-19T13:46:11.228Z,10.73
2023-04-19T13:48:40.255Z,11.05
2023-04-19T13:51:09.006Z,11.48
2023-04-19T13:53:37.462Z,10.80
2023-04-19T13:56:09.442Z,11.07
2023-04-19T13:58:37.991Z,11.37
2023-04-19T14:01:08.002Z,11.80
2023-04-19T14:03:36.834Z,12.00
2023-04-19T14:06:05.807Z,11.73
2023-04-19T14:08:34.304Z,11.80
2023-04-19T14:11:02.860Z,11.60
2023-04-19T14:13:31.265Z,11.63
2023-04-19T14:15:59.731Z,11.87
2023-04-19T14:18:29.467Z,11.60
2023-04-19T14:20:58.009Z,11.13
2023-04-19T14:23:26.439Z,11.13
2023-04-19T14:25:54.936Z,11.73
2023-04-19T14:28:23.405Z,12.20
2023-04-19T14:30:51.849Z,12.37
2023-04-19T14:33:20.321Z,11.30
2023-04-19T14:35:50.060Z,10.50
2023-04-19T14:38:18.484Z,11.40
2023-04-19T14:40:47.878Z,10.60
2023-04-19T14:43:17.423Z,11.63
2023-04-19T14:45:45.836Z,11.53
2023-04-19T14:48:14.237Z,12.30
2023-04-19T14:50:42.726Z,12.63
2023-04-19T14:53:12.531Z,12.87
2023-04-19T14:55:41.155Z,13.23
2023-04-19T14:58:09.533Z,12.97
2023-04-19T15:00:37.992Z,12.23
2023-04-19T15:03:06.605Z,12.53
2023-04-19T15:05:37.744Z,12.67
2023-04-19T15:08:09.110Z,12.90
2023-04-19T15:10:44.613Z,13.33
2023-04-19T15:13:13.045Z,12.00
2023-04-19T15:15:41.528Z,12.07
2023-04-19T15:18:10.011Z,12.40
2023-04-19T15:20:38.424Z,13.00
2023-04-19T15:23:06.867Z,11.50
2023-04-19T15:25:36.029Z,12.67
2023-04-19T15:28:06.039Z,11.83
2023-04-19T15:30:34.429Z,12.97
2023-04-19T15:33:02.913Z,11.93
2023-04-19T15:35:32.246Z,13.10
2023-04-19T15:38:00.718Z,12.53
2023-04-19T15:40:30.256Z,13.13
2023-04-19T15:42:58.719Z,12.53
2023-04-19T15:45:28.478Z,13.43
2023-04-19T15:47:56.932Z,12.97
2023-04-19T15:50:25.477Z,13.50
2023-04-19T15:52:53.880Z,13.73
2023-04-19T15:55:22.259Z,13.33
2023-04-19T15:57:50.900Z,13.80
2023-04-19T16:00:20.129Z,13.07
2023-04-19T16:02:50.172Z,13.73
2023-04-19T16:05:18.715Z,12.80
2023-04-19T16:07:47.217Z,12.80
2023-04-19T16:10:16.025Z,13.87
2023-04-19T16:12:44.642Z,13.30
2023-04-19T16:15:13.579Z,13.50
2023-04-19T16:17:42.052Z,13.63
2023-04-19T16:20:13.242Z,12.30
2023-04-19T16:22:41.650Z,12.63
2023-04-19T16:25:11.450Z,12.77
2023-04-19T16:27:42.802Z,12.50
2023-04-19T16:30:11.667Z,13.27
2023-04-19T16:32:40.349Z,12.17
2023-04-19T16:35:09.563Z,12.87
2023-04-19T16:37:39.294Z,13.47
2023-04-19T16:40:10.207Z,12.47
2023-04-19T16:42:39.769Z,13.87
2023-04-19T16:45:09.784Z,12.70
2023-04-19T16:47:38.173Z,12.97
2023-04-19T16:50:07.553Z,12.80
2023-04-19T16:52:37.317Z,13.00
2023-04-19T16:55:07.723Z,12.83
2023-04-19T16:57:36.765Z,13.23
2023-04-19T17:00:07.444Z,12.70
2023-04-19T17:02:36.118Z,13.10
2023-04-19T17:05:04.739Z,13.13
2023-04-19T17:07:33.736Z,13.10
2023-04-19T17:10:02.201Z,13.20
2023-04-19T17:12:33.250Z,13.20
2023-04-19T17:15:02.908Z,13.10
2023-04-19T17:17:31.305Z,13.60
2023-04-19T17:19:59.841Z,13.37
2023-04-19T17:22:28.274Z,12.70
2023-04-19T17:24:57.448Z,12.77
2023-04-19T17:27:25.954Z,12.67
2023-04-19T17:29:55.803Z,13.10
2023-04-19T17:32:24.193Z,12.73
2023-04-19T17:34:52.891Z,12.30
2023-04-19T17:37:21.321Z,12.20
2023-04-19T17:39:49.790Z,12.77
2023-04-19T17:42:18.289Z,13.13
2023-04-19T17:44:47.270Z,13.40
2023-04-19T17:47:17.123Z,14.13
2023-04-19T17:49:47.069Z,13.50
2023-04-19T17:52:15.657Z,13.50
2023-04-19T17:54:44.096Z,13.17
2023-04-19T17:57:12.543Z,14.40
2023-04-19T17:59:41.139Z,13.50
2023-04-19T18:02:10.793Z,13.03
2023-04-19T18:04:44.793Z,13.47
2023-04-19T18:07:13.251Z,13.60
2023-04-19T18:09:42.051Z,14.03
2023-04-19T18:12:10.439Z,14.37
2023-04-19T18:14:38.836Z,14.93
2023-04-19T18:17:08.342Z,14.60
2023-04-19T18:19:37.438Z,14.67
2023-04-19T18:22:07.512Z,15.33
2023-04-19T18:24:35.955Z,14.87
2023-04-19T18:27:04.780Z,14.63
2023-04-19T18:29:33.259Z,13.90
2023-04-19T18:32:01.592Z,14.83
2023-04-19T18:34:30.034Z,14.23
2023-04-19T18:37:01.239Z,13.47
2023-04-19T18:39:31.268Z,14.63
2023-04-19T18:41:59.948Z,14.20
2023-04-19T18:44:49.706Z,15.43
2023-04-19T18:47:17.616Z,15.10
2023-04-19T18:49:58.029Z,16.47
2023-04-19T18:52:31.595Z,15.60
2023-04-19T18:55:01.400Z,14.83
2023-04-19T18:57:34.173Z,15.23
2023-04-19T19:00:05.837Z,15.57
2023-04-19T19:02:37.679Z,15.23
2023-04-19T19:05:08.657Z,16.20
2023-04-19T19:07:37.969Z,16.17
2023-04-19T19:10:19.149Z,15.27
2023-04-19T19:12:51.976Z,14.97
2023-04-19T19:15:20.413Z,15.10
2023-04-19T19:17:50.392Z,14.40
2023-04-19T19:20:20.155Z,14.73
2023-04-19T19:22:49.042Z,15.50
2023-04-19T19:25:18.825Z,15.47
2023-04-19T19:28:05.628Z,14.50
2023-04-19T19:30:40.133Z,15.60
2023-04-19T19:33:08.787Z,16.40
2023-04-19T19:35:39.533Z,14.80
2023-04-19T19:38:08.335Z,14.90
2023-04-19T19:41:05.420Z,15.03
2023-04-19T19:43:26.787Z,15.57
2023-04-19T19:45:55.490Z,16.30
2023-04-19T19:48:25.330Z,16.03
2023-04-19T19:51:24.736Z,15.70
2023-04-19T19:53:42.627Z,16.27
2023-04-19T19:56:20.967Z,16.00
2023-04-19T19:58:51.873Z,15.40
2023-04-19T20:01:22.469Z,14.80
2023-04-19T20:03:51.420Z,14.63
2023-04-19T20:08:52.232Z,14.83
2023-04-19T20:11:22.005Z,14.97
2023-04-19T20:13:50.758Z,15.10
2023-04-19T20:16:19.821Z,15.33
2023-04-19T20:18:49.927Z,14.50
2023-04-19T20:21:19.732Z,14.60
2023-04-19T20:23:48.299Z,15.20
2023-04-19T20:26:16.696Z,15.30
2023-04-19T20:28:46.362Z,14.77
2023-04-19T20:31:14.756Z,14.90
2023-04-19T20:33:43.156Z,15.13
2023-04-19T20:36:13.945Z,15.03
2023-04-19T20:38:42.426Z,14.93
2023-04-19T20:41:10.737Z,14.57
2023-04-19T20:43:39.315Z,14.97
2023-04-19T20:46:09.510Z,14.97
2023-04-19T20:48:38.052Z,15.03
2023-04-19T20:51:06.551Z,14.90
2023-04-19T20:53:35.657Z,14.37
2023-04-19T20:56:04.043Z,13.40
2023-04-19T20:58:34.086Z,14.43
2023-04-19T21:01:02.490Z,14.20
2023-04-19T21:03:32.526Z,15.13
2023-04-19T21:06:01.456Z,13.87
2023-04-19T21:08:29.891Z,14.43
2023-04-19T21:10:58.256Z,14.30
2023-04-19T21:13:26.730Z,13.90
2023-04-19T21:15:55.172Z,14.43
2023-04-19T21:18:24.716Z,14.83
2023-04-19T21:20:54.458Z,13.67
2023-04-19T21:23:22.836Z,14.33
2023-04-19T21:25:51.441Z,16.20
2023-04-19T21:28:20.428Z,16.30
2023-04-19T21:30:48.816Z,16.17
2023-04-19T21:33:18.305Z,15.67
2023-04-19T21:35:46.711Z,14.67
2023-04-19T21:38:16.619Z,14.97
2023-04-19T21:40:45.045Z,15.70
2023-04-19T21:43:13.621Z,16.13
2023-04-19T21:45:42.076Z,15.10
2023-04-19T21:48:10.632Z,16.63
2023-04-19T21:50:39.032Z,15.83
2023-04-19T21:53:07.455Z,17.20
2023-04-19T21:55:37.199Z,16.10
2023-04-19T21:58:05.611Z,16.50
2023-04-19T22:00:34.079Z,15.77
2023-04-19T22:03:02.771Z,15.53
2023-04-19T22:05:31.303Z,15.07
2023-04-19T22:07:59.904Z,15.70
2023-04-19T22:10:29.310Z,15.60
2023-04-19T22:12:59.247Z,15.40
2023-04-19T22:15:28.133Z,15.80
2023-04-19T22:17:57.485Z,16.07
2023-04-19T22:20:26.929Z,16.00
2023-04-19T22:22:55.322Z,16.00
2023-04-19T22:25:23.837Z,16.00
2023-04-19T22:27:52.220Z,15.83
2023-04-19T22:30:22.069Z,16.37
2023-04-19T22:32:51.362Z,15.83
2023-04-19T22:35:22.545Z,16.77
2023-04-19T22:37:51.404Z,16.10
2023-04-19T22:40:19.782Z,15.97
2023-04-19T22:42:48.151Z,16.63
2023-04-19T22:45:16.556Z,16.23
2023-04-19T22:47:46.467Z,15.80
2023-04-19T22:50:14.976Z,17.33
2023-04-19T22:52:44.717Z,16.77
2023-04-19T22:55:13.230Z,16.97
2023-04-19T22:57:43.130Z,16.40
2023-04-19T23:00:12.171Z,16.20
2023-04-19T23:02:40.638Z,16.60
2023-04-19T23:05:11.494Z,15.60
2023-04-19T23:07:42.151Z,15.90
2023-04-19T23:10:12.495Z,14.67
2023-04-19T23:12:40.963Z,14.83
2023-04-19T23:15:11.185Z,15.13
2023-04-19T23:17:41.260Z,14.10
2023-04-19T23:20:12.434Z,15.10
2023-04-19T23:22:41.344Z,14.73
2023-04-19T23:25:10.970Z,14.90
2023-04-19T23:27:39.285Z,14.77
2023-04-19T23:30:09.657Z,13.97
2023-04-19T23:32:38.144Z,16.30
2023-04-19T23:35:07.539Z,15.40
2023-04-19T23:37:38.013Z,15.00
2023-04-19T23:40:07.728Z,15.47
2023-04-19T23:42:37.193Z,15.30
2023-04-19T23:45:06.730Z,15.40
2023-04-19T23:47:35.071Z,15.43
2023-04-19T23:50:03.503Z,16.37
2023-04-19T23:52:31.935Z,16.00
2023-04-19T23:55:01.676Z,15.73
2023-04-19T23:57:30.210Z,15.90
2023-04-19T23:59:58.585Z,16.80
